D12-A

EHDT · Países Bajos

METAR pasados EHDT · D12-A

A continuación puedes ver los METAR de los últimos días. Selecciona un año para ver los METAR más antiguos, desde el año 2007 en adelante.

15 de julio de 2024

Hora Código Tiempo Temp. Visibilidad Cielo nuboso Viento METAR/SPECI
12:25
I
15 °C 10 km+ 900 ft 210° 210° 14 kt METAR EHDV 151025Z AUTO 21014KT 170V260 9999 FEW006/// BKN009/// BKN037/// 15/13 Q1011
11:55
M
15 °C 10 km+ 2.200 ft 190° 190° 12 kt METAR EHDV 150955Z AUTO 19012KT 130V270 9999 FEW006/// SCT010/// BKN022/// 15/13 Q1011
11:25
M
14 °C 10 km+ 2.000 ft Var Var 6 kt METAR EHDV 150925Z AUTO VRB06KT 9999 FEW002/// SCT007/// BKN020/// 14/13 Q1011
10:55
M
14 °C 6 km 1.400 ft Var Var 7 kt METAR EHDV 150855Z AUTO VRB07KT 6000 FEW002/// SCT011/// BKN014/// 14/13 Q1011 REDZ
10:25
M
14 °C 9 km 1.000 ft Var Var 11 kt METAR EHDV 150825Z AUTO VRB11KT 9000 DZRA FEW004/// SCT008/// BKN010/// 14/12 Q1011
09:55
I
14 °C 10 km+ 900 ft Var Var 11 kt METAR EHDV 150755Z AUTO VRB11KT 9999 SCT008/// BKN009/// OVC011/// 14/12 Q1011
09:25
I
14 °C 10 km+ 900 ft 250° 250° 12 kt METAR EHDV 150725Z AUTO 25012KT 180V300 9999 FEW008/// BKN009/// OVC011/// 14/12 Q1010
08:55
I
14 °C 10 km+ 900 ft 250° 250° 12 kt METAR EHDV 150655Z AUTO 25012KT 170V340 9999 SCT008/// BKN009/// OVC011/// 14/12 Q1010
08:25
M
14 °C 10 km+ 1.000 ft 270° 270° 10 kt METAR EHDV 150625Z AUTO 27010KT 230V310 9999 FEW008/// BKN010/// OVC012/// 14/12 Q1010
07:55
M
14 °C 10 km+ 1.200 ft 260° 260° 14 kt METAR EHDV 150555Z AUTO 26014KT 180V330 9999 SCT010/// OVC012/// 14/12 Q1010
07:25
M
14 °C 10 km+ 1.400 ft 270° 270° 14 kt METAR EHDV 150525Z AUTO 27014KT 230V300 9999 SCT012/// BKN014/// OVC016/// 14/12 Q1010
06:55
M
14 °C 10 km+ 1.400 ft 280° 280° 14 kt METAR EHDV 150455Z AUTO 28014KT 240V310 9999 FEW012/// BKN014/// OVC016/// 14/11 Q1010
06:25
M
14 °C 10 km+ 1.200 ft 280° 280° 14 kt METAR EHDV 150425Z AUTO 28014KT 240V310 9999 FEW004/// SCT009/// BKN012/// 14/11 Q1010
05:55
M
14 °C 10 km+ 1.200 ft 280° 280° 17 kt METAR EHDV 150355Z AUTO 28017KT 250V310 9999 FEW004/// SCT007/// BKN012/// 14/12 Q1010 REDZ
05:25
M
14 °C 10 km+ 1.100 ft 270° 270° 16 kt METAR EHDV 150325Z AUTO 27016KT 230V310 9999 FEW007/// BKN011/// OVC013/// 14/12 Q1010
04:55
I
14 °C 10 km+ 900 ft 290° 290° 18 kt METAR EHDV 150255Z AUTO 29018KT 260V320 9999 FEW007/// BKN009/// BKN011/// 14/12 Q1009
04:25
M
14 °C 10 km+ 1.000 ft 280° 280° 17 kt METAR EHDV 150225Z AUTO 28017KT 250V310 9999 FEW007/// SCT009/// BKN010/// 14/12 Q1009
03:55
M
14 °C 10 km+ 1.000 ft 280° 280° 18 kt METAR EHDV 150155Z AUTO 28018KT 250V310 9999 FEW005/// BKN010/// OVC013/// 14/13 Q1009
03:25
M
14 °C 10 km+ 1.100 ft 280° 280° 19 kt METAR EHDV 150125Z AUTO 28019KT 240V330 9999 FEW003/// SCT005/// BKN011/// 14/13 Q1009
02:55
I
14 °C 10 km+ 500 ft 280° 280° 19 kt METAR EHDV 150055Z AUTO 28019KT 230V350 9999 FEW002/// SCT003/// BKN005/// 14/13 Q1009
02:25
L
14 °C 10 km+ 300 ft Var Var 19 kt METAR EHDV 150025Z AUTO VRB19KT 9999 FEW002/// BKN003/// OVC004/// 14/13 Q1009 REDZ
01:55
L
14 °C 5 km 300 ft Var Var 18 kt METAR EHDV 142355Z AUTO VRB18KT 5000 -DZRA FEW002/// BKN003/// OVC005/// 14/13 Q1009 REDZ
01:25
I
14 °C 10 km+ 600 ft 270° 270° 16 kt METAR EHDV 142325Z AUTO 27016KT 9999 FEW003/// SCT004/// BKN006/// 14/13 Q1009
00:55
L
14 °C 10 km+ 400 ft 280° 280° 21 kt METAR EHDV 142255Z AUTO 28021KT 240V320 9999 SCT003/// BKN004/// BKN007/// 14/13 Q1009
00:25
L
14 °C 10 km+ 400 ft Var Var 20 kt METAR EHDV 142225Z AUTO VRB20KT 9999 SCT003/// OVC004/// 14/13 Q1009

14 de julio de 2024

Hora Código Tiempo Temp. Visibilidad Cielo nuboso Viento METAR/SPECI
23:55
L
15 °C 10 km+ 400 ft Var Var 20 kt METAR EHDV 142155Z AUTO VRB20KT 9999 SCT003/// BKN004/// OVC005/// 15/13 Q1008
23:25
I
15 °C 10 km+ 600 ft 270° 270° 17 kt METAR EHDV 142125Z AUTO 27017KT 180V330 9999 SCT003/// SCT005/// BKN006/// 15/14 Q1008
22:55
I
15 °C 10 km+ 800 ft 270° 270° 17 kt METAR EHDV 142055Z AUTO 27017KT 210V340 9999 -RA FEW003/// SCT007/// BKN008/// 15/14 Q1008
22:25
I
15 °C 10 km+ 600 ft 280° 280° 16 kt METAR EHDV 142025Z AUTO 28016KT 240V310 9999 FEW002/// SCT004/// BKN006/// 15/14 Q1008
21:55
I
15 °C 10 km+ 600 ft 270° 270° 16 kt METAR EHDV 141955Z AUTO 27016KT 230V310 9999 FEW003/// SCT004/// BKN006/// 15/14 Q1008 REDZ
21:25
L
15 °C 10 km+ 400 ft 270° 270° 17 kt METAR EHDV 141925Z AUTO 27017KT 230V320 9999 SCT002/// BKN004/// BKN006/// 15/14 Q1008
20:55
L
14 °C 7 km 400 ft 270° 270° 17 kt METAR EHDV 141855Z AUTO 27017KT 220V310 7000 SCT002/// BKN004/// BKN005/// 14/14 Q1008 REDZ
20:25
I
15 °C 10 km+ 500 ft 270° 270° 19 kt METAR EHDV 141825Z AUTO 27019KT 230V320 9999 -RA FEW003/// SCT004/// BKN005/// 15/14 Q1007 RERA REDZ
19:55
I
15 °C 10 km+ 500 ft 270° 270° 18 kt METAR EHDV 141755Z AUTO 27018KT 200V010 9999 FEW002/// SCT004/// BKN005/// 15/14 Q1007
19:25
I
15 °C 9 km 500 ft 270° 270° 18 kt METAR EHDV 141725Z AUTO 27018KT 230V340 9000 FEW002/// SCT004/// BKN005/// 15/14 Q1007 REDZ
18:55
I
15 °C 10 km+ 500 ft 260° 260° 19 kt METAR EHDV 141655Z AUTO 26019KT 9999 FEW002/// SCT004/// BKN005/// 15/14 Q1007
18:25
M
15 °C 10 km+ 1.100 ft 260° 260° 18 kt METAR EHDV 141625Z AUTO 26018KT 9999 FEW004/// SCT006/// BKN011/// 15/14 Q1007
17:55
M
15 °C 10 km+ 1.700 ft 260° 260° 18 kt METAR EHDV 141555Z AUTO 26018KT 210V320 9999 FEW005/// BKN017/// BKN020/// 15/14 Q1007
17:25
M
15 °C 10 km+ 1.600 ft 270° 270° 20 kt METAR EHDV 141525Z AUTO 27020KT 210V360 9999 FEW004/// BKN016/// BKN019/// 15/14 Q1007
16:55
M
15 °C 10 km+ 1.400 ft 260° 260° 18 kt METAR EHDV 141455Z AUTO 26018KT 200V350 9999 FEW005/// SCT010/// BKN014/// 15/13 Q1006
16:25
I
15 °C 10 km+ 800 ft 270° 270° 21 kt METAR EHDV 141425Z AUTO 27021KT 220V340 9999 FEW005/// SCT007/// BKN008/// 15/13 Q1006
15:55
M
15 °C 10 km+ 1.100 ft 280° 280° 20 kt METAR EHDV 141355Z AUTO 28020KT 230V330 9999 FEW005/// SCT008/// BKN011/// 15/14 Q1006
15:25
M
15 °C 10 km+ 1.200 ft 270° 270° 21 kt METAR EHDV 141325Z AUTO 27021KT 220V350 9999 FEW006/// BKN012/// OVC027/// 15/13 Q1006
14:55
M
15 °C 10 km+ 1.100 ft 260° 260° 18 kt METAR EHDV 141255Z AUTO 26018KT 190V350 9999 FEW005/// SCT007/// BKN011/// 15/13 Q1006
14:25
I
15 °C 10 km+ 600 ft 260° 260° 19 kt METAR EHDV 141225Z AUTO 26019KT 200V350 9999 FEW005/// BKN006/// BKN008/// 15/13 Q1006
13:55
I
15 °C 10 km+ 800 ft Var Var 19 kt METAR EHDV 141155Z AUTO VRB19KT 9999 FEW004/// SCT006/// BKN008/// 15/14 Q1005
13:25
M
15 °C 10 km+ 1.300 ft 260° 260° 17 kt METAR EHDV 141125Z AUTO 26017KT 190V340 9999 FEW004/// BKN013/// OVC015/// 15/14 Q1005
12:55
M
15 °C 10 km+ 1.300 ft 270° 270° 19 kt METAR EHDV 141055Z AUTO 27019KT 230V330 9999 FEW004/// SCT007/// BKN013/// 15/14 Q1005
12:25
M
15 °C 10 km+ 1.400 ft 260° 260° 17 kt METAR EHDV 141025Z AUTO 26017KT 210V320 9999 FEW001/// SCT005/// BKN014/// 15/14 Q1005
11:55
I
15 °C 10 km+ 800 ft 260° 260° 18 kt METAR EHDV 140955Z AUTO 26018KT 200V330 9999 FEW001/// SCT004/// BKN008/// 15/14 Q1005 RERA REDZ
11:25
I
15 °C 4,3 km 900 ft 280° 280° 20 kt METAR EHDV 140925Z AUTO 28020KT 250V310 4300 +DZ FEW003/// SCT004/// BKN009/// 15/14 Q1005
10:55
M
15 °C 5 km 1.000 ft 280° 280° 19 kt METAR EHDV 140855Z AUTO 28019KT 250V310 5000 -DZ FEW002/// SCT006/// BKN010/// 15/14 Q1004 REDZ
10:25
M
15 °C 6 km 1.100 ft 280° 280° 18 kt METAR EHDV 140825Z AUTO 28018KT 250V310 6000 DZ FEW002/// SCT008/// BKN011/// 15/14 Q1004
09:55
M
15 °C 10 km+ 1.100 ft 270° 270° 16 kt METAR EHDV 140755Z AUTO 27016KT 220V320 9999 FEW003/// SCT005/// BKN011/// 15/14 Q1004
09:25
I
15 °C 10 km+ 700 ft 280° 280° 18 kt METAR EHDV 140725Z AUTO 28018KT 250V320 9999 FEW003/// SCT005/// BKN007/// 15/14 Q1004
08:55
I
15 °C 10 km+ 700 ft 280° 280° 17 kt METAR EHDV 140655Z AUTO 28017KT 250V310 9999 FEW003/// SCT005/// BKN007/// 15/14 Q1004
08:25
I
15 °C 9 km 600 ft 280° 280° 17 kt METAR EHDV 140625Z AUTO 28017KT 9000 FEW000/// SCT004/// BKN006/// 15/14 Q1004
07:55
L
15 °C 5 km 300 ft 300° 300° 15 kt METAR EHDV 140555Z AUTO 30015KT 5000 BR FEW000/// SCT001/// BKN003/// 15/14 Q1003 REDZ
07:25
L
15 °C 3,1 km 100 ft 310° 310° 14 kt METAR EHDV 140525Z AUTO 31014KT 3100 DZ FEW000/// BKN001/// BKN003/// 15/15 Q1003
06:55
L
15 °C 3,4 km 200 ft 290° 290° 11 kt METAR EHDV 140455Z AUTO 29011KT 170V320 3400 +DZ FEW000/// BKN002/// BKN003/// 15/15 Q1003
06:25
I
14 °C 1,5 km 500 ft 210° 210° 24 kt METAR EHDV 140425Z AUTO 21024KT 1500 RA FEW002/// SCT003/// BKN005/// 14/13 Q1002 RERA REDZ
05:55
L
14 °C 7 km 400 ft 230° 230° 27 kt METAR EHDV 140355Z AUTO 23027KT 7000 -DZ SCT003/// BKN004/// BKN006/// 14/13 Q1002 REDZ
05:25
L
14 °C 5 km 400 ft 230° 230° 29 kt METAR EHDV 140325Z AUTO 23029KT 5000 DZRA SCT002/// BKN004/// OVC005/// 14/13 Q1002 RERA REDZ
04:55
L
14 °C 2,4 km 400 ft 230° 230° 28 kt METAR EHDV 140255Z AUTO 23028KT 2400 RA FEW000/// SCT003/// BKN004/// 14/13 Q1003
04:25
L
13 °C 2,2 km 400 ft 230° 230° 29 kt METAR EHDV 140225Z AUTO 23029KT 2200 SHRA FEW000/// SCT002/// BKN004/// 13/13 Q1003
03:55
L
14 °C 2,8 km 300 ft 230° 230° 28 kt METAR EHDV 140155Z AUTO 23028KT 2800 SHRA FEW002/// BKN003/// BKN005/// 14/13 Q1003
03:25
I
14 °C 3,3 km 500 ft 230° 230° 28 kt METAR EHDV 140125Z AUTO 23028KT 3300 SHRA SCT003/// BKN005/// BKN006/// 14/13 Q1003
02:55
L
14 °C 3,6 km 400 ft 230° 230° 28 kt METAR EHDV 140055Z AUTO 23028KT 3600 SHRA FEW000/// BKN004/// BKN006/// 14/12 Q1004
02:25
I
14 °C 3,3 km 500 ft 230° 230° 27 kt METAR EHDV 140025Z AUTO 23027KT 3300 SHRA FEW000/// SCT004/// BKN005/// 14/13 Q1004
01:55
I
14 °C 9 km 500 ft 240° 240° 27 kt METAR EHDV 132355Z AUTO 24027KT 9000 DZRA SCT004/// BKN005/// BKN007/// 14/13 Q1004
01:25
I
14 °C 9 km 700 ft 250° 250° 28 kt METAR EHDV 132325Z AUTO 25028KT 9000 -DZ FEW004/// SCT006/// BKN007/// 14/12 Q1004
00:55
I
14 °C 10 km+ 700 ft 250° 250° 26 kt METAR EHDV 132255Z AUTO 25026KT 9999 FEW005/// BKN007/// BKN008/// 14/12 Q1004
00:25
I
14 °C 10 km+ 700 ft 250° 250° 24 kt METAR EHDV 132225Z AUTO 25024KT 9999 -DZ SCT005/// BKN007/// BKN009/// 14/12 Q1005 REDZ

13 de julio de 2024

Hora Código Tiempo Temp. Visibilidad Cielo nuboso Viento METAR/SPECI
23:55
I
14 °C 10 km+ 700 ft 250° 250° 25 kt METAR EHDV 132155Z AUTO 25025KT 9999 -DZ FEW004/// SCT006/// BKN007/// 14/13 Q1005
23:25
I
14 °C 10 km+ 800 ft 250° 250° 26 kt METAR EHDV 132125Z AUTO 25026KT 9999 -DZ FEW004/// SCT006/// BKN008/// 14/12 Q1005
22:55
I
14 °C 10 km+ 700 ft 250° 250° 27 kt METAR EHDV 132055Z AUTO 25027KT 9999 SCT005/// BKN007/// BKN009/// 14/13 Q1005
22:25
I
14 °C 10 km+ 700 ft 260° 260° 25 kt METAR EHDV 132025Z AUTO 26025KT 9999 -RA FEW005/// SCT006/// BKN007/// 14/13 Q1005
21:55
I
14 °C 10 km+ 800 ft 260° 260° 24 kt METAR EHDV 131955Z AUTO 26024KT 9999 -RA FEW005/// SCT006/// BKN008/// 14/13 Q1005 RERA REDZ
21:25
I
14 °C 10 km+ 900 ft 270° 270° 22 kt METAR EHDV 131925Z AUTO 27022KT 9999 -DZRA FEW005/// SCT007/// BKN009/// 14/12 Q1006
20:55
I
14 °C 10 km+ 900 ft Var Var 25 kt METAR EHDV 131855Z AUTO VRB25KT 9999 FEW004/// SCT007/// BKN009/// 14/13 Q1006
20:25
I
14 °C 10 km+ 700 ft 280° 280° 28 kt METAR EHDV 131825Z AUTO 28028KT 210V350 9999 FEW004/// SCT006/// BKN007/// 14/13 Q1006 REDZ
19:55
I
14 °C 10 km+ 900 ft 270° 270° 23 kt METAR EHDV 131755Z AUTO 27023KT 9999 -RA FEW005/// SCT007/// BKN009/// 14/13 Q1006 RERA REDZ
19:25
M
14 °C 10 km+ 1.100 ft 280° 280° 28 kt METAR EHDV 131725Z AUTO 28028KT 220V010 9999 FEW005/// SCT007/// BKN011/// 14/12 Q1006
18:55
I
14 °C 9 km 700 ft 280° 280° 26 kt METAR EHDV 131655Z AUTO 28026KT 230V040 9000 -RADZ FEW003/// BKN007/// BKN010/// 14/13 Q1006 RERA REDZ
18:25
I
14 °C 6 km 800 ft 280° 280° 25 kt METAR EHDV 131625Z AUTO 28025KT 250V330 6000 DZ FEW004/// SCT006/// BKN008/// 14/13 Q1006
17:55
M
15 °C 10 km+ 1.200 ft 290° 290° 28 kt METAR EHDV 131555Z AUTO 29028KT 9999 DZ FEW006/// SCT007/// BKN012/// 15/13 Q1006
17:25
M
15 °C 10 km+ 1.500 ft 290° 290° 29 kt METAR EHDV 131525Z AUTO 29029KT 9999 FEW006/// SCT008/// BKN015/// 15/13 Q1006
16:55
M
15 °C 10 km+ 1.500 ft 290° 290° 27 kt METAR EHDV 131455Z AUTO 29027KT 250V310 9999 FEW005/// SCT009/// BKN015/// 15/13 Q1006 REDZ
16:25
V
15 °C 10 km+ 3.800 ft 290° 290° 25 kt METAR EHDV 131425Z AUTO 29025KT 9999 FEW005/// SCT012/// BKN038/// 15/13 Q1007
15:55
V
15 °C 10 km+ 3.300 ft 290° 290° 26 kt METAR EHDV 131355Z AUTO 29026KT 9999 -RA FEW005/// SCT026/// BKN033/// 15/13 Q1007 RERA REDZ
15:25
M
15 °C 10 km+ 2.100 ft 290° 290° 23 kt METAR EHDV 131325Z AUTO 29023KT 9999 -RA FEW007/// SCT018/// BKN021/// 15/13 Q1007
14:55
M
15 °C 10 km+ 1.400 ft 310° 310° 20 kt METAR EHDV 131255Z AUTO 31020KT 9999 SHRA FEW007/// SCT009/// BKN014/// 15/13 Q1007
14:25
M
15 °C 10 km+ 1.300 ft 310° 310° 22 kt METAR EHDV 131225Z AUTO 31022KT 9999 -RADZ FEW007/// SCT009/// BKN013/// 15/13 Q1007 RERA REDZ
13:55
M
15 °C 10 km+ 1.600 ft 310° 310° 22 kt METAR EHDV 131155Z AUTO 31022KT 9999 FEW008/// SCT012/// BKN016/// 15/13 Q1007
13:25
V
15 °C 10 km+ 4.100 ft 310° 310° 20 kt METAR EHDV 131125Z AUTO 31020KT 9999 FEW009/// SCT019/// BKN041/// 15/12 Q1007
12:55
V
15 °C 10 km+ 3.200 ft 320° 320° 18 kt METAR EHDV 131055Z AUTO 32018KT 9999 FEW017/// SCT027/// BKN032/// 15/12 Q1007
12:25
M
15 °C 10 km+ 2.700 ft 330° 330° 18 kt METAR EHDV 131025Z AUTO 33018KT 9999 FEW007/// SCT022/// BKN027/// 15/12 Q1007
11:55
V
15 °C 10 km+ - 340° 340° 18 kt METAR EHDV 130955Z AUTO 34018KT 9999 FEW007/// SCT008/// 15/13 Q1008
11:25
V
15 °C 10 km+ 4.300 ft 340° 340° 18 kt METAR EHDV 130925Z AUTO 34018KT 9999 FEW006/// SCT009/// BKN043/// 15/13 Q1008
10:55
V
15 °C 10 km+ 3.400 ft 350° 350° 19 kt METAR EHDV 130855Z AUTO 35019KT 9999 FEW006/// SCT010/// BKN034/// 15/13 Q1008
10:25
V
15 °C 10 km+ 3.500 ft 350° 350° 18 kt METAR EHDV 130825Z AUTO 35018KT 9999 FEW004/// SCT030/// BKN035/// 15/13 Q1008
09:55
V
15 °C 10 km+ 3.600 ft 350° 350° 19 kt METAR EHDV 130755Z AUTO 35019KT 9999 -RA FEW004/// SCT008/// BKN036/// 15/13 Q1008 REGR RERA REDZ
09:25
M
15 °C 10 km+ 1.400 ft 350° 350° 19 kt METAR EHDV 130725Z AUTO 35019KT 9999 -DZ FEW004/// SCT008/// BKN014/// 15/13 Q1008
08:55
M
15 °C 10 km+ 1.100 ft 360° 360° 21 kt METAR EHDV 130655Z AUTO 36021KT 9999 FEW006/// SCT009/// BKN011/// 15/13 Q1008
08:25
M
15 °C 10 km+ 1.100 ft 350° 350° 17 kt METAR EHDV 130625Z AUTO 35017KT 9999 FEW007/// BKN011/// BKN014/// 15/13 Q1008
07:55
M
15 °C 10 km+ 1.900 ft 360° 360° 17 kt METAR EHDV 130555Z AUTO 36017KT 9999 FEW007/// SCT011/// BKN019/// 15/13 Q1008
Cambiar esta información